createdAt,value
2023-03-18T00:01:02.650Z,5.8
2023-03-18T00:04:02.701Z,5.8
2023-03-18T00:07:02.685Z,5.8
2023-03-18T00:10:02.677Z,5.8
2023-03-18T00:13:02.671Z,5.8
2023-03-18T00:16:02.764Z,5.8
2023-03-18T00:19:02.668Z,5.8
2023-03-18T00:22:02.665Z,5.8
2023-03-18T00:25:02.703Z,5.8
2023-03-18T00:28:02.703Z,5.8
2023-03-18T00:31:02.710Z,5.8
2023-03-18T00:34:02.673Z,5.8
2023-03-18T00:37:02.674Z,5.8
2023-03-18T00:40:02.689Z,5.8
2023-03-18T00:43:02.712Z,5.8
2023-03-18T00:46:02.683Z,5.8
2023-03-18T00:49:02.682Z,5.8
2023-03-18T00:52:02.687Z,5.8
2023-03-18T00:55:02.705Z,5.8
2023-03-18T00:58:02.699Z,5.8
2023-03-18T01:01:02.735Z,5.8
2023-03-18T01:04:02.698Z,5.8
2023-03-18T01:07:02.709Z,5.8
2023-03-18T01:10:02.716Z,5.8
2023-03-18T01:13:02.721Z,5.8
2023-03-18T01:16:02.724Z,5.8
2023-03-18T01:19:02.738Z,5.8
2023-03-18T01:22:02.724Z,5.8
2023-03-18T01:25:02.733Z,5.8
2023-03-18T01:28:02.755Z,5.8
2023-03-18T01:31:02.734Z,5.8
2023-03-18T01:34:02.741Z,5.8
2023-03-18T01:37:02.772Z,5.8
2023-03-18T01:40:02.797Z,5.8
2023-03-18T01:43:02.755Z,5.8
2023-03-18T01:46:02.770Z,5.8
2023-03-18T01:49:02.759Z,5.8
2023-03-18T01:52:02.764Z,5.8
2023-03-18T01:55:02.800Z,5.8
2023-03-18T01:58:02.766Z,5.8
2023-03-18T02:01:02.791Z,5.8
2023-03-18T02:04:02.767Z,5.8
2023-03-18T02:07:02.766Z,5.8
2023-03-18T02:10:02.823Z,5.8
2023-03-18T02:13:02.814Z,5.8
2023-03-18T02:16:02.775Z,5.8
2023-03-18T02:19:02.798Z,5.8
2023-03-18T02:22:02.785Z,5.8
2023-03-18T02:25:02.802Z,5.8
2023-03-18T02:28:02.804Z,5.8
2023-03-18T02:31:02.866Z,5.8
2023-03-18T02:34:02.804Z,5.8
2023-03-18T02:37:02.808Z,5.8
2023-03-18T02:40:02.857Z,5.8
2023-03-18T02:43:02.825Z,5.8
2023-03-18T02:46:02.847Z,5.8
2023-03-18T02:49:02.853Z,5.8
2023-03-18T02:52:02.838Z,5.8
2023-03-18T02:55:02.873Z,5.8
2023-03-18T02:58:02.864Z,5.8
2023-03-18T03:01:02.924Z,5.8
2023-03-18T03:04:02.853Z,5.8
2023-03-18T03:07:02.881Z,5.8
2023-03-18T03:10:02.875Z,5.8
2023-03-18T03:13:02.884Z,5.8
2023-03-18T03:16:02.993Z,5.8
2023-03-18T03:19:02.884Z,5.8
2023-03-18T03:22:02.879Z,5.8
2023-03-18T03:25:02.917Z,5.8
2023-03-18T03:28:02.919Z,5.8
2023-03-18T03:31:02.943Z,5.8
2023-03-18T03:34:02.904Z,5.8
2023-03-18T03:37:02.911Z,5.8
2023-03-18T03:40:02.943Z,5.8
2023-03-18T03:43:02.958Z,5.8
2023-03-18T03:46:02.951Z,5.8
2023-03-18T03:49:02.933Z,5.8
2023-03-18T03:52:02.942Z,5.8
2023-03-18T03:55:02.951Z,5.8
2023-03-18T03:58:02.963Z,5.8
2023-03-18T04:01:02.973Z,5.8
2023-03-18T04:04:02.981Z,5.8
2023-03-18T04:07:02.952Z,5.8
2023-03-18T04:10:02.974Z,5.8
2023-03-18T04:13:02.974Z,5.8
2023-03-18T04:16:03.019Z,5.8
2023-03-18T04:19:03.001Z,5.8
2023-03-18T04:22:02.985Z,5.8
2023-03-18T04:25:02.997Z,5.8
2023-03-18T04:28:02.994Z,5.8
2023-03-18T04:31:03.017Z,5.8
2023-03-18T04:34:03.003Z,5.8
2023-03-18T04:37:03.046Z,5.8
2023-03-18T04:40:03.034Z,5.8
2023-03-18T04:43:03.042Z,5.8
2023-03-18T04:46:03.025Z,5.8
2023-03-18T04:49:03.033Z,5.8
2023-03-18T04:52:03.038Z,5.8
2023-03-18T04:55:03.085Z,5.8
2023-03-18T04:58:03.060Z,5.8
2023-03-18T05:01:03.092Z,5.8
2023-03-18T05:04:03.167Z,5.8
2023-03-18T05:07:03.081Z,5.8
2023-03-18T05:10:03.089Z,5.8
2023-03-18T05:13:03.135Z,5.8
2023-03-18T05:16:03.107Z,5.8
2023-03-18T05:19:03.111Z,5.8
2023-03-18T05:22:03.122Z,5.8
2023-03-18T05:25:03.139Z,5.8
2023-03-18T05:28:03.142Z,5.8
2023-03-18T05:31:03.160Z,5.8
2023-03-18T05:34:03.153Z,5.8
2023-03-18T05:37:03.159Z,5.8
2023-03-18T05:40:03.169Z,5.8
2023-03-18T05:43:03.178Z,5.8
2023-03-18T05:46:03.197Z,5.8
2023-03-18T05:49:03.204Z,5.8
2023-03-18T05:52:03.190Z,5.8
2023-03-18T05:55:03.205Z,5.8
2023-03-18T05:58:03.244Z,5.8
2023-03-18T06:01:03.217Z,5.8
2023-03-18T06:04:03.217Z,5.8
2023-03-18T06:07:03.246Z,5.8
2023-03-18T06:10:03.235Z,5.8
2023-03-18T06:13:03.244Z,5.8
2023-03-18T06:16:03.235Z,5.8
2023-03-18T06:19:03.253Z,5.8
2023-03-18T06:22:03.246Z,5.8
2023-03-18T06:25:03.291Z,5.8
2023-03-18T06:28:03.285Z,5.8
2023-03-18T06:31:03.287Z,5.8
2023-03-18T06:34:03.271Z,5.8
2023-03-18T06:37:03.287Z,5.8
2023-03-18T06:40:03.293Z,5.8
2023-03-18T06:43:03.324Z,5.8
2023-03-18T06:46:03.344Z,5.8
2023-03-18T06:49:03.296Z,5.8
2023-03-18T06:52:03.301Z,5.8
2023-03-18T06:55:03.315Z,5.8
2023-03-18T06:58:03.316Z,5.8
2023-03-18T07:01:03.391Z,5.8
2023-03-18T07:04:03.388Z,5.8
2023-03-18T07:07:03.318Z,5.8
2023-03-18T07:10:03.340Z,5.8
2023-03-18T07:13:03.332Z,5.8
2023-03-18T07:16:03.359Z,5.8
2023-03-18T07:19:03.357Z,5.8
2023-03-18T07:22:03.355Z,5.8
2023-03-18T07:25:03.348Z,5.8
2023-03-18T07:28:03.361Z,5.8
2023-03-18T07:31:03.368Z,5.8
2023-03-18T07:34:03.338Z,5.8
2023-03-18T07:37:03.364Z,5.8
2023-03-18T07:40:03.352Z,5.8
2023-03-18T07:43:03.358Z,5.8
2023-03-18T07:46:03.364Z,5.8
2023-03-18T07:49:03.361Z,5.8
2023-03-18T07:52:03.367Z,5.8
2023-03-18T07:55:03.417Z,5.8
2023-03-18T07:58:03.393Z,5.8
2023-03-18T08:01:03.386Z,5.8
2023-03-18T08:04:03.412Z,5.8
2023-03-18T08:07:03.405Z,5.8
2023-03-18T08:10:03.433Z,5.8
2023-03-18T08:13:03.482Z,5.8
2023-03-18T08:16:03.486Z,5.8
2023-03-18T08:19:03.452Z,5.8
2023-03-18T08:22:03.465Z,5.8
2023-03-18T08:25:03.474Z,5.8
2023-03-18T08:28:03.498Z,5.8
2023-03-18T08:31:03.542Z,5.8
2023-03-18T08:34:03.500Z,5.8
2023-03-18T08:37:03.513Z,5.8
2023-03-18T08:40:03.537Z,5.8
2023-03-18T08:43:03.542Z,5.8
2023-03-18T08:46:03.559Z,5.8
2023-03-18T08:49:03.580Z,5.8
2023-03-18T08:52:03.575Z,5.8
2023-03-18T08:55:03.587Z,5.8
2023-03-18T08:58:03.595Z,5.8
2023-03-18T09:01:03.694Z,5.8
2023-03-18T09:04:03.619Z,5.8
2023-03-18T09:07:03.671Z,5.8
2023-03-18T09:10:03.653Z,5.8
2023-03-18T09:13:03.660Z,5.8
2023-03-18T09:16:03.658Z,5.8
2023-03-18T09:19:03.675Z,5.8
2023-03-18T09:22:03.691Z,5.8
2023-03-18T09:25:03.722Z,5.8
2023-03-18T09:28:03.710Z,5.8
2023-03-18T09:31:03.740Z,5.8
2023-03-18T09:34:03.728Z,5.8
2023-03-18T09:37:03.735Z,5.8
2023-03-18T09:40:03.762Z,5.8
2023-03-18T09:43:03.921Z,5.8
2023-03-18T09:46:03.869Z,5.8
2023-03-18T09:49:03.784Z,5.8
2023-03-18T09:52:03.801Z,5.8
2023-03-18T09:55:03.819Z,5.8
2023-03-18T09:58:03.836Z,5.9
2023-03-18T10:01:03.904Z,5.9
2023-03-18T10:04:03.931Z,5.9
2023-03-18T10:07:03.870Z,5.9
2023-03-18T10:10:03.888Z,5.9
2023-03-18T10:13:03.901Z,5.9
2023-03-18T10:16:03.983Z,5.9
2023-03-18T10:19:03.940Z,5.9
2023-03-18T10:22:03.930Z,5.9
2023-03-18T10:25:03.956Z,5.9
2023-03-18T10:28:03.966Z,5.9
2023-03-18T10:31:04.030Z,5.9
2023-03-18T10:34:03.980Z,5.9
2023-03-18T10:37:04.013Z,5.9
2023-03-18T10:40:04.018Z,5.9
2023-03-18T10:43:04.031Z,5.9
2023-03-18T10:46:04.075Z,5.9
2023-03-18T10:49:04.047Z,5.9
2023-03-18T10:52:04.057Z,5.9
2023-03-18T10:55:04.104Z,5.9
2023-03-18T10:58:04.092Z,5.9
2023-03-18T11:01:04.101Z,5.9
2023-03-18T11:04:04.117Z,5.9
2023-03-18T11:07:04.138Z,5.9
2023-03-18T11:10:04.159Z,5.9
2023-03-18T11:13:04.212Z,5.9
2023-03-18T11:16:04.232Z,5.9
2023-03-18T11:19:04.196Z,5.9
2023-03-18T11:22:04.221Z,5.9
2023-03-18T11:25:04.240Z,5.9
2023-03-18T11:28:04.264Z,5.9
2023-03-18T11:31:04.354Z,6
2023-03-18T11:34:04.276Z,5.9
2023-03-18T11:37:04.292Z,6
2023-03-18T11:40:04.320Z,6
2023-03-18T11:43:04.337Z,6
2023-03-18T11:46:04.341Z,6
2023-03-18T11:49:04.383Z,6
2023-03-18T11:52:04.368Z,6
2023-03-18T11:55:04.378Z,6
2023-03-18T11:58:04.393Z,6
2023-03-18T12:01:04.402Z,6.1
2023-03-18T12:04:04.405Z,6.1
2023-03-18T12:07:04.454Z,6.1
2023-03-18T12:10:04.429Z,6.1
2023-03-18T12:13:04.508Z,6.1
2023-03-18T12:16:04.430Z,6.1
2023-03-18T12:19:04.438Z,6.1
2023-03-18T12:22:04.451Z,6.1
2023-03-18T12:25:04.481Z,6.1
2023-03-18T12:28:04.466Z,6.1
2023-03-18T12:31:04.481Z,6.1
2023-03-18T12:34:04.455Z,6.1
2023-03-18T12:37:04.463Z,6.1
2023-03-18T12:40:04.479Z,6.1
2023-03-18T12:43:04.511Z,6.1
2023-03-18T12:46:04.503Z,6.2
2023-03-18T12:49:04.487Z,6.2
2023-03-18T12:52:04.490Z,6.2
2023-03-18T12:55:04.550Z,6.2
2023-03-18T12:58:04.520Z,6.2
2023-03-18T13:01:04.686Z,6.2
2023-03-18T13:04:04.520Z,6.2
2023-03-18T13:07:04.517Z,6.2
2023-03-18T13:10:04.520Z,6.2
2023-03-18T13:13:04.531Z,6.2
2023-03-18T13:16:04.528Z,6.2
2023-03-18T13:19:04.881Z,6.2
2023-03-18T13:22:04.525Z,6.3
2023-03-18T13:25:04.542Z,6.3
2023-03-18T13:28:04.547Z,6.3
2023-03-18T13:31:04.621Z,6.3
2023-03-18T13:34:04.545Z,6.3
2023-03-18T13:37:04.575Z,6.3
2023-03-18T13:40:04.576Z,6.4
2023-03-18T13:43:04.563Z,6.4
2023-03-18T13:46:04.579Z,6.4
2023-03-18T13:49:04.569Z,6.4
2023-03-18T13:52:04.577Z,6.4
2023-03-18T13:55:04.628Z,6.4
2023-03-18T13:58:04.588Z,6.4
2023-03-18T14:01:04.607Z,6.4
2023-03-18T14:04:04.595Z,6.4
2023-03-18T14:07:04.595Z,6.4
2023-03-18T14:10:18.180Z,6.4
2023-03-18T14:13:04.635Z,6.5
2023-03-18T14:16:04.614Z,6.5
2023-03-18T14:19:04.613Z,6.5
2023-03-18T14:22:04.612Z,6.5
2023-03-18T14:25:04.623Z,6.5
2023-03-18T14:28:04.636Z,6.5
2023-03-18T14:31:04.692Z,6.5
2023-03-18T14:34:04.633Z,6.6
2023-03-18T14:37:04.675Z,6.6
2023-03-18T14:40:04.653Z,6.6
2023-03-18T14:43:04.657Z,6.6
2023-03-18T14:46:04.706Z,6.6
2023-03-18T14:49:04.683Z,6.6
2023-03-18T14:52:04.660Z,6.6
2023-03-18T14:55:04.689Z,6.6
2023-03-18T14:58:04.696Z,6.6
2023-03-18T15:01:04.714Z,6.6
2023-03-18T15:04:04.683Z,6.7
2023-03-18T15:07:04.703Z,6.6
2023-03-18T15:10:04.692Z,6.7
2023-03-18T15:13:04.697Z,6.7
2023-03-18T15:16:04.727Z,6.7
2023-03-18T15:19:04.701Z,6.7
2023-03-18T15:22:04.763Z,6.7
2023-03-18T15:25:04.747Z,6.7
2023-03-18T15:28:04.733Z,6.7
2023-03-18T15:31:04.728Z,6.7
2023-03-18T15:34:04.720Z,6.7
2023-03-18T15:37:04.723Z,6.7
2023-03-18T15:40:04.736Z,6.7
2023-03-18T15:43:04.772Z,6.7
2023-03-18T15:46:04.811Z,6.7
2023-03-18T15:49:04.748Z,6.8
2023-03-18T15:52:04.753Z,6.8
2023-03-18T15:55:04.773Z,6.8
2023-03-18T15:58:04.772Z,6.8
2023-03-18T16:01:04.816Z,6.8
2023-03-18T16:04:04.768Z,6.8
2023-03-18T16:07:04.780Z,6.8
2023-03-18T16:10:04.791Z,6.9
2023-03-18T16:13:04.789Z,6.9
2023-03-18T16:16:04.782Z,6.9
2023-03-18T16:19:04.814Z,6.9
2023-03-18T16:22:04.794Z,6.9
2023-03-18T16:25:04.813Z,6.9
2023-03-18T16:28:04.819Z,6.9
2023-03-18T16:31:04.811Z,6.9
2023-03-18T16:34:04.821Z,6.9
2023-03-18T16:37:04.845Z,6.9
2023-03-18T16:40:04.835Z,6.9
2023-03-18T16:43:04.836Z,6.9
2023-03-18T16:46:04.888Z,6.9
2023-03-18T16:49:04.829Z,6.9
2023-03-18T16:52:04.841Z,6.9
2023-03-18T16:55:04.886Z,6.9
2023-03-18T16:58:04.856Z,6.9
2023-03-18T17:01:04.957Z,7
2023-03-18T17:04:04.885Z,7
2023-03-18T17:07:04.899Z,7
2023-03-18T17:10:04.895Z,7
2023-03-18T17:13:04.897Z,7
2023-03-18T17:16:04.869Z,7
2023-03-18T17:19:04.872Z,7
2023-03-18T17:22:04.883Z,7
2023-03-18T17:25:04.890Z,7
2023-03-18T17:28:04.896Z,7
2023-03-18T17:31:04.995Z,7
2023-03-18T17:34:04.895Z,7.1
2023-03-18T17:37:04.936Z,7.1
2023-03-18T17:40:04.968Z,7.1
2023-03-18T17:43:04.929Z,7.1
2023-03-18T17:46:05.005Z,7.1
2023-03-18T17:49:04.944Z,7.1
2023-03-18T17:52:04.925Z,7.1
2023-03-18T17:55:04.939Z,7.1
2023-03-18T17:58:04.942Z,7.1
2023-03-18T18:01:04.925Z,7.1
2023-03-18T18:04:04.934Z,7.1
2023-03-18T18:07:04.968Z,7.1
2023-03-18T18:10:04.951Z,7.1
2023-03-18T18:13:04.980Z,7.1
2023-03-18T18:16:05.024Z,7.1
2023-03-18T18:19:04.958Z,7.1
2023-03-18T18:22:04.966Z,7.1
2023-03-18T18:25:05.000Z,7.1
2023-03-18T18:28:04.980Z,7.1
2023-03-18T18:31:04.992Z,7.1
2023-03-18T18:34:04.989Z,7.1
2023-03-18T18:37:04.995Z,7.1
2023-03-18T18:40:04.997Z,7.1
2023-03-18T18:43:05.034Z,7.1
2023-03-18T18:46:05.006Z,7.1
2023-03-18T18:49:05.007Z,7.2
2023-03-18T18:52:05.010Z,7.1
2023-03-18T18:55:05.025Z,7.2
2023-03-18T18:58:05.032Z,7.2
2023-03-18T19:01:05.089Z,7.2
2023-03-18T19:04:05.089Z,7.2
2023-03-18T19:07:05.034Z,7.1
2023-03-18T19:10:05.035Z,7.2
2023-03-18T19:13:05.060Z,7.2
2023-03-18T19:16:05.094Z,7.2
2023-03-18T19:19:05.077Z,7.2
2023-03-18T19:22:05.057Z,7.2
2023-03-18T19:25:05.180Z,7.2
2023-03-18T19:28:05.079Z,7.2
2023-03-18T19:31:05.069Z,7.2
2023-03-18T19:34:05.079Z,7.2
2023-03-18T19:37:05.242Z,7.2
2023-03-18T19:40:05.080Z,7.2
2023-03-18T19:43:05.097Z,7.2
2023-03-18T19:46:05.200Z,7.2
2023-03-18T19:49:05.091Z,7.2
2023-03-18T19:52:05.100Z,7.2
2023-03-18T19:55:05.130Z,7.2
2023-03-18T19:58:05.121Z,7.2
2023-03-18T20:01:05.160Z,7.2
2023-03-18T20:04:05.147Z,7.2
2023-03-18T20:07:05.113Z,7.2
2023-03-18T20:10:05.129Z,7.2
2023-03-18T20:13:05.162Z,7.2
2023-03-18T20:16:05.134Z,7.2
2023-03-18T20:19:05.144Z,7.2
2023-03-18T20:22:05.146Z,7.2
2023-03-18T20:25:05.304Z,7.2
2023-03-18T20:28:05.191Z,7.2
2023-03-18T20:31:05.335Z,7.2
2023-03-18T20:34:05.162Z,7.2
2023-03-18T20:37:05.262Z,7.2
2023-03-18T20:40:05.272Z,7.2
2023-03-18T20:43:05.184Z,7.2
2023-03-18T20:46:05.187Z,7.2
2023-03-18T20:49:05.219Z,7.2
2023-03-18T20:52:05.192Z,7.2
2023-03-18T20:55:05.191Z,7.2
2023-03-18T20:58:05.202Z,7.2
2023-03-18T21:01:05.233Z,7.2
2023-03-18T21:04:05.259Z,7.2
2023-03-18T21:07:05.237Z,7.2
2023-03-18T21:10:05.212Z,7.2
2023-03-18T21:13:05.226Z,7.2
2023-03-18T21:16:05.221Z,7.2
2023-03-18T21:19:05.220Z,7.2
2023-03-18T21:22:05.222Z,7.2
2023-03-18T21:25:07.125Z,7.2
2023-03-18T21:28:05.241Z,7.2
2023-03-18T21:31:05.276Z,7.2
2023-03-18T21:34:05.233Z,7.2
2023-03-18T21:37:05.234Z,7.2
2023-03-18T21:40:05.240Z,7.2
2023-03-18T21:43:05.282Z,7.2
2023-03-18T21:46:05.318Z,7.2
2023-03-18T21:49:05.253Z,7.2
2023-03-18T21:52:05.255Z,7.2
2023-03-18T21:55:05.263Z,7.2
2023-03-18T21:58:05.274Z,7.2
2023-03-18T22:01:05.330Z,7.2
2023-03-18T22:04:05.312Z,7.2
2023-03-18T22:07:05.275Z,7.2
2023-03-18T22:10:05.280Z,7.2
2023-03-18T22:13:05.300Z,7.2
2023-03-18T22:16:05.302Z,7.2
2023-03-18T22:19:05.322Z,7.2
2023-03-18T22:22:05.298Z,7.2
2023-03-18T22:25:05.314Z,7.2
2023-03-18T22:28:05.325Z,7.2
2023-03-18T22:31:05.328Z,7.2
2023-03-18T22:34:05.318Z,7.2
2023-03-18T22:37:05.350Z,7.2
2023-03-18T22:40:05.323Z,7.2
2023-03-18T22:43:05.332Z,7.1
2023-03-18T22:46:05.406Z,7.2
2023-03-18T22:49:05.334Z,7.2
2023-03-18T22:52:05.330Z,7.1
2023-03-18T22:55:05.370Z,7.2
2023-03-18T22:58:05.387Z,7.2
2023-03-18T23:01:05.413Z,7.2
2023-03-18T23:04:05.419Z,7.1
2023-03-18T23:07:05.471Z,7.1
2023-03-18T23:10:05.421Z,7.1
2023-03-18T23:13:05.472Z,7.1
2023-03-18T23:16:05.526Z,7.1
2023-03-18T23:19:05.425Z,7.1
2023-03-18T23:22:05.428Z,7.1
2023-03-18T23:25:05.422Z,7.1
2023-03-18T23:28:05.442Z,7.1
2023-03-18T23:31:05.476Z,7.1
2023-03-18T23:34:05.431Z,7.1
2023-03-18T23:37:05.453Z,7.1
2023-03-18T23:40:05.450Z,7.1
2023-03-18T23:43:05.437Z,7.1
2023-03-18T23:46:05.537Z,7.1
2023-03-18T23:49:05.463Z,7.1
2023-03-18T23:52:05.429Z,7.1
2023-03-18T23:55:10.263Z,7.1
2023-03-18T23:58:05.457Z,7.1
